createdAt,value
2017-01-30T00:00:29.712Z,975.23
2017-01-30T00:01:39.990Z,975.26
2017-01-30T00:02:50.662Z,975.23
2017-01-30T00:04:00.946Z,975.24
2017-01-30T00:05:10.823Z,975.22
2017-01-30T00:06:21.499Z,975.2
2017-01-30T00:07:32.176Z,975.23
2017-01-30T00:08:42.877Z,975.3
2017-01-30T00:09:53.559Z,975.38
2017-01-30T00:11:04.236Z,975.38
2017-01-30T00:12:14.517Z,975.36
2017-01-30T00:13:25.225Z,975.37
2017-01-30T00:14:35.899Z,975.35
2017-01-30T00:15:46.586Z,975.4
2017-01-30T00:16:57.262Z,975.41
2017-01-30T00:18:07.937Z,975.44
2017-01-30T00:19:18.607Z,975.4
2017-01-30T00:20:29.291Z,975.44
2017-01-30T00:21:39.973Z,975.46
2017-01-30T00:22:50.653Z,975.48
2017-01-30T00:24:01.322Z,975.5
2017-01-30T00:25:11.997Z,975.5
2017-01-30T00:26:22.274Z,975.53
2017-01-30T00:27:32.946Z,975.54
2017-01-30T00:28:43.616Z,975.55
2017-01-30T00:29:54.289Z,975.57
2017-01-30T00:31:04.565Z,975.58
2017-01-30T00:32:15.236Z,975.57
2017-01-30T00:33:25.930Z,975.6
2017-01-30T00:34:36.212Z,975.62
2017-01-30T00:35:46.488Z,975.62
2017-01-30T00:36:57.172Z,975.64
2017-01-30T00:38:07.847Z,975.6
2017-01-30T00:39:18.524Z,975.64
2017-01-30T00:40:29.222Z,975.63
2017-01-30T00:41:39.894Z,975.65
2017-01-30T00:42:49.778Z,975.65
2017-01-30T00:44:00.447Z,975.64
2017-01-30T00:45:10.721Z,975.67
2017-01-30T00:46:21.027Z,975.67
2017-01-30T00:47:31.704Z,975.68
2017-01-30T00:48:42.404Z,975.65
2017-01-30T00:49:53.079Z,975.69
2017-01-30T00:51:03.361Z,975.7
2017-01-30T00:52:13.638Z,975.66
2017-01-30T00:53:23.910Z,975.73
2017-01-30T00:54:34.584Z,975.73
2017-01-30T00:55:45.260Z,975.71
2017-01-30T00:56:55.931Z,975.77
2017-01-30T00:58:06.606Z,975.83
2017-01-30T00:59:17.284Z,975.87
2017-01-30T01:00:27.965Z,975.89
2017-01-30T01:01:38.640Z,975.86
2017-01-30T01:02:49.315Z,975.87
2017-01-30T01:03:59.637Z,975.93
2017-01-30T01:05:10.336Z,975.91
2017-01-30T01:06:20.612Z,975.94
2017-01-30T01:07:31.285Z,976.03
2017-01-30T01:08:41.956Z,976
2017-01-30T01:09:52.631Z,976.02
2017-01-30T01:11:02.922Z,976.03
2017-01-30T01:12:13.200Z,976.04
2017-01-30T01:13:23.871Z,976.03
2017-01-30T01:14:34.558Z,976.07
2017-01-30T01:15:45.236Z,976.08
2017-01-30T01:16:55.911Z,976.14
2017-01-30T01:18:06.594Z,976.18
2017-01-30T01:19:16.472Z,976.2
2017-01-30T01:20:27.142Z,976.15
2017-01-30T01:21:37.820Z,976.27
2017-01-30T01:22:48.102Z,976.26
2017-01-30T01:23:58.782Z,976.31
2017-01-30T01:25:09.457Z,976.34
2017-01-30T01:26:20.125Z,976.4
2017-01-30T01:27:30.805Z,976.39
2017-01-30T01:28:41.483Z,976.4
2017-01-30T01:29:52.163Z,976.38
2017-01-30T01:31:02.843Z,976.45
2017-01-30T01:32:13.521Z,976.46
2017-01-30T01:33:24.193Z,976.51
2017-01-30T01:34:34.864Z,976.57
2017-01-30T01:35:45.544Z,976.58
2017-01-30T01:36:56.217Z,976.63
2017-01-30T01:38:06.894Z,976.65
2017-01-30T01:39:17.576Z,976.68
2017-01-30T01:40:28.253Z,976.76
2017-01-30T01:41:38.924Z,976.69
2017-01-30T01:42:49.594Z,976.68
2017-01-30T01:44:00.267Z,976.69
2017-01-30T01:45:10.552Z,976.73
2017-01-30T01:46:21.231Z,976.74
2017-01-30T01:47:31.904Z,976.79
2017-01-30T01:48:42.605Z,976.78
2017-01-30T01:49:53.279Z,976.81
2017-01-30T01:51:03.979Z,976.78
2017-01-30T01:52:14.652Z,976.79
2017-01-30T01:53:25.327Z,976.8
2017-01-30T01:54:35.995Z,976.82
2017-01-30T01:55:46.666Z,976.82
2017-01-30T01:56:57.344Z,976.82
2017-01-30T01:58:07.728Z,976.76
2017-01-30T01:59:18.012Z,976.79
2017-01-30T02:00:28.680Z,976.8
2017-01-30T02:01:39.354Z,976.79
2017-01-30T02:02:49.628Z,976.71
2017-01-30T02:04:00.302Z,976.67
2017-01-30T02:05:10.972Z,976.65
2017-01-30T02:06:21.644Z,976.59
2017-01-30T02:07:31.920Z,976.52
2017-01-30T02:08:42.615Z,976.5
2017-01-30T02:09:53.287Z,976.42
2017-01-30T02:11:03.563Z,976.44
2017-01-30T02:12:14.240Z,976.52
2017-01-30T02:13:24.522Z,976.54
2017-01-30T02:14:35.195Z,976.56
2017-01-30T02:15:45.473Z,976.59
2017-01-30T02:16:56.145Z,976.67
2017-01-30T02:18:06.818Z,976.67
2017-01-30T02:19:16.699Z,976.76
2017-01-30T02:20:27.376Z,976.73
2017-01-30T02:21:38.054Z,976.76
2017-01-30T02:22:48.728Z,976.79
2017-01-30T02:23:59.404Z,976.76
2017-01-30T02:25:10.073Z,976.76
2017-01-30T02:26:20.344Z,976.71
2017-01-30T02:27:31.315Z,976.7
2017-01-30T02:28:41.994Z,976.67
2017-01-30T02:29:52.662Z,976.69
2017-01-30T02:31:03.346Z,976.71
2017-01-30T02:32:14.027Z,976.72
2017-01-30T02:33:24.705Z,976.72
2017-01-30T02:34:35.380Z,976.75
2017-01-30T02:35:46.065Z,976.73
2017-01-30T02:36:56.739Z,976.75
2017-01-30T02:38:07.402Z,976.8
2017-01-30T02:39:17.291Z,976.81
2017-01-30T02:40:27.962Z,976.84
2017-01-30T02:41:38.638Z,976.84
2017-01-30T02:42:48.916Z,976.81
2017-01-30T02:43:59.587Z,976.86
2017-01-30T02:45:10.260Z,976.85
2017-01-30T02:46:20.942Z,976.87
2017-01-30T02:47:31.623Z,976.91
2017-01-30T02:48:42.293Z,976.95
2017-01-30T02:49:52.976Z,976.95
2017-01-30T02:51:03.650Z,976.97
2017-01-30T02:52:14.323Z,977
2017-01-30T02:53:24.996Z,977
2017-01-30T02:54:35.677Z,976.96
2017-01-30T02:55:46.348Z,977
2017-01-30T02:56:56.621Z,976.97
2017-01-30T02:58:07.287Z,976.99
2017-01-30T02:59:17.562Z,976.98
2017-01-30T03:00:28.268Z,977.01
2017-01-30T03:01:38.947Z,977.05
2017-01-30T03:02:49.624Z,977.02
2017-01-30T03:04:00.295Z,977.06
2017-01-30T03:05:10.575Z,977.08
2017-01-30T03:06:21.254Z,977.08
2017-01-30T03:07:31.946Z,977.08
2017-01-30T03:08:42.622Z,977.11
2017-01-30T03:09:53.295Z,977.11
2017-01-30T03:11:03.576Z,977.17
2017-01-30T03:12:14.243Z,977.18
2017-01-30T03:13:24.918Z,977.19
2017-01-30T03:14:35.595Z,977.22
2017-01-30T03:15:46.266Z,977.21
2017-01-30T03:16:56.935Z,977.27
2017-01-30T03:18:07.611Z,977.28
2017-01-30T03:19:17.885Z,977.28
2017-01-30T03:20:28.565Z,977.21
2017-01-30T03:21:39.243Z,977.27
2017-01-30T03:22:49.918Z,977.24
2017-01-30T03:24:00.592Z,977.25
2017-01-30T03:25:10.870Z,977.23
2017-01-30T03:26:21.538Z,977.27
2017-01-30T03:27:32.215Z,977.26
2017-01-30T03:28:42.960Z,977.27
2017-01-30T03:29:53.272Z,977.3
2017-01-30T03:31:03.974Z,977.33
2017-01-30T03:32:14.648Z,977.34
2017-01-30T03:33:24.928Z,977.36
2017-01-30T03:34:35.608Z,977.39
2017-01-30T03:35:46.289Z,977.43
2017-01-30T03:36:56.568Z,977.41
2017-01-30T03:38:07.250Z,977.45
2017-01-30T03:39:17.935Z,977.5
2017-01-30T03:40:28.614Z,977.48
2017-01-30T03:41:39.294Z,977.58
2017-01-30T03:42:49.970Z,977.6
2017-01-30T03:44:00.647Z,977.57
2017-01-30T03:45:10.931Z,977.57
2017-01-30T03:46:21.601Z,977.55
2017-01-30T03:47:32.271Z,977.61
2017-01-30T03:48:42.944Z,977.61
2017-01-30T03:49:53.627Z,977.63
2017-01-30T03:51:04.297Z,977.67
2017-01-30T03:52:14.574Z,977.67
2017-01-30T03:53:25.240Z,977.67
2017-01-30T03:54:35.946Z,977.69
2017-01-30T03:55:46.619Z,977.72
2017-01-30T03:56:57.293Z,977.74
2017-01-30T03:58:07.969Z,977.78
2017-01-30T03:59:18.646Z,977.79
2017-01-30T04:00:29.319Z,977.85
2017-01-30T04:01:39.990Z,977.88
2017-01-30T04:02:50.663Z,977.91
2017-01-30T04:04:01.336Z,977.92
2017-01-30T04:05:12.016Z,977.93
2017-01-30T04:06:22.695Z,977.98
2017-01-30T04:07:33.368Z,977.93
2017-01-30T04:08:44.046Z,977.95
2017-01-30T04:09:54.722Z,977.96
2017-01-30T04:11:05.396Z,977.99
2017-01-30T04:12:15.272Z,977.94
2017-01-30T04:13:25.945Z,977.99
2017-01-30T04:14:36.628Z,977.98
2017-01-30T04:15:47.307Z,978.01
2017-01-30T04:16:57.978Z,978.05
2017-01-30T04:18:08.653Z,978.07
2017-01-30T04:19:19.354Z,978.07
2017-01-30T04:20:30.023Z,978.04
2017-01-30T04:21:40.694Z,978.1
2017-01-30T04:22:51.377Z,978.13
2017-01-30T04:24:02.058Z,978.15
2017-01-30T04:25:12.734Z,978.15
2017-01-30T04:26:23.407Z,978.18
2017-01-30T04:27:34.080Z,978.17
2017-01-30T04:28:44.753Z,978.22
2017-01-30T04:29:55.434Z,978.18
2017-01-30T04:31:06.104Z,978.21
2017-01-30T04:32:16.781Z,978.25
2017-01-30T04:33:27.462Z,978.22
2017-01-30T04:34:38.147Z,978.23
2017-01-30T04:35:48.842Z,978.26
2017-01-30T04:36:59.512Z,978.28
2017-01-30T04:38:10.185Z,978.28
2017-01-30T04:39:20.854Z,978.25
2017-01-30T04:40:31.556Z,978.29
2017-01-30T04:41:42.225Z,978.27
2017-01-30T04:42:52.895Z,978.26
2017-01-30T04:44:03.604Z,978.28
2017-01-30T04:45:14.278Z,978.3
2017-01-30T04:46:24.956Z,978.24
2017-01-30T04:47:35.696Z,978.27
2017-01-30T04:48:46.372Z,978.24
2017-01-30T04:49:57.046Z,978.28
2017-01-30T04:51:07.326Z,978.31
2017-01-30T04:52:17.595Z,978.37
2017-01-30T04:53:28.272Z,978.35
2017-01-30T04:54:38.546Z,978.36
2017-01-30T04:55:49.216Z,978.4
2017-01-30T04:56:59.891Z,978.42
2017-01-30T04:58:10.567Z,978.39
2017-01-30T04:59:21.240Z,978.45
2017-01-30T05:00:31.910Z,978.4
2017-01-30T05:01:42.583Z,978.42
2017-01-30T05:02:53.257Z,978.41
2017-01-30T05:04:03.929Z,978.43
2017-01-30T05:05:14.603Z,978.44
2017-01-30T05:06:25.269Z,978.44
2017-01-30T05:07:35.942Z,978.49
2017-01-30T05:08:46.619Z,978.49
2017-01-30T05:09:57.296Z,978.51
2017-01-30T05:11:07.991Z,978.57
2017-01-30T05:12:18.663Z,978.6
2017-01-30T05:13:29.331Z,978.57
2017-01-30T05:14:40.015Z,978.57
2017-01-30T05:15:50.691Z,978.59
2017-01-30T05:17:00.968Z,978.58
2017-01-30T05:18:11.637Z,978.63
2017-01-30T05:19:22.307Z,978.68
2017-01-30T05:20:32.975Z,978.65
2017-01-30T05:21:43.651Z,978.71
2017-01-30T05:22:54.331Z,978.68
2017-01-30T05:24:05.007Z,978.74
2017-01-30T05:25:15.698Z,978.72
2017-01-30T05:26:25.974Z,978.74
2017-01-30T05:27:36.649Z,978.75
2017-01-30T05:28:47.327Z,978.8
2017-01-30T05:29:58.007Z,978.79
2017-01-30T05:31:07.879Z,978.8
2017-01-30T05:32:17.762Z,978.83
2017-01-30T05:33:28.435Z,978.87
2017-01-30T05:34:38.758Z,978.89
2017-01-30T05:35:49.430Z,978.9
2017-01-30T05:37:00.111Z,978.95
2017-01-30T05:38:10.791Z,978.97
2017-01-30T05:39:21.462Z,978.98
2017-01-30T05:40:32.134Z,978.97
2017-01-30T05:41:42.808Z,979.02
2017-01-30T05:42:53.483Z,979.04
2017-01-30T05:44:04.191Z,979.07
2017-01-30T05:45:14.465Z,979.09
2017-01-30T05:46:25.136Z,979.05
2017-01-30T05:47:35.820Z,979.07
2017-01-30T05:48:46.493Z,979.1
2017-01-30T05:49:56.769Z,979.13
2017-01-30T05:51:07.049Z,979.21
2017-01-30T05:52:17.322Z,979.26
2017-01-30T05:53:27.988Z,979.29
2017-01-30T05:54:38.662Z,979.34
2017-01-30T05:55:49.337Z,979.33
2017-01-30T05:57:00.015Z,979.37
2017-01-30T05:58:10.696Z,979.35
2017-01-30T05:59:21.370Z,979.39
2017-01-30T06:00:32.040Z,979.37
2017-01-30T06:01:42.714Z,979.42
2017-01-30T06:02:53.380Z,979.43
2017-01-30T06:04:03.662Z,979.47
2017-01-30T06:05:14.328Z,979.48
2017-01-30T06:06:25.033Z,979.47
2017-01-30T06:07:35.736Z,979.51
2017-01-30T06:08:46.405Z,979.47
2017-01-30T06:09:57.080Z,979.5
2017-01-30T06:11:07.755Z,979.5
2017-01-30T06:12:18.430Z,979.51
2017-01-30T06:13:29.108Z,979.52
2017-01-30T06:14:39.383Z,979.55
2017-01-30T06:15:50.063Z,979.57
2017-01-30T06:17:00.729Z,979.62
2017-01-30T06:18:10.613Z,979.64
2017-01-30T06:19:20.494Z,979.66
2017-01-30T06:20:31.164Z,979.69
2017-01-30T06:21:41.836Z,979.7
2017-01-30T06:22:52.501Z,979.75
2017-01-30T06:24:03.171Z,979.78
2017-01-30T06:25:13.847Z,979.76
2017-01-30T06:26:24.516Z,979.82
2017-01-30T06:27:35.182Z,979.82
2017-01-30T06:28:45.859Z,979.82
2017-01-30T06:29:56.127Z,979.9
2017-01-30T06:31:06.801Z,979.88
2017-01-30T06:32:17.477Z,979.9
2017-01-30T06:33:28.143Z,979.9
2017-01-30T06:34:39.163Z,979.91
2017-01-30T06:35:49.835Z,979.92
2017-01-30T06:37:00.127Z,979.9
2017-01-30T06:38:10.825Z,979.93
2017-01-30T06:39:21.503Z,979.93
2017-01-30T06:40:31.777Z,979.91
2017-01-30T06:41:42.452Z,979.88
2017-01-30T06:42:53.131Z,979.89
2017-01-30T06:44:03.036Z,979.9
2017-01-30T06:45:12.918Z,979.91
2017-01-30T06:46:23.591Z,979.87
2017-01-30T06:47:34.288Z,979.84
2017-01-30T06:48:44.570Z,979.86
2017-01-30T06:49:55.274Z,979.87
2017-01-30T06:51:05.546Z,979.92
2017-01-30T06:52:16.221Z,979.97
2017-01-30T06:53:26.894Z,979.98
2017-01-30T06:54:37.568Z,980.02
2017-01-30T06:55:48.242Z,980.03
2017-01-30T06:56:58.915Z,980.01
2017-01-30T06:58:09.593Z,980.02
2017-01-30T06:59:19.864Z,980.02
2017-01-30T07:00:30.562Z,980.04
2017-01-30T07:01:41.233Z,980.05
2017-01-30T07:02:51.502Z,980.09
2017-01-30T07:04:02.174Z,980.1
2017-01-30T07:05:12.492Z,980.08
2017-01-30T07:06:23.160Z,980.11
2017-01-30T07:07:33.838Z,980.16
2017-01-30T07:08:44.513Z,980.14
2017-01-30T07:09:55.180Z,980.18
2017-01-30T07:11:05.055Z,980.22
2017-01-30T07:12:15.726Z,980.23
2017-01-30T07:13:26.400Z,980.24
2017-01-30T07:14:36.676Z,980.31
2017-01-30T07:15:47.360Z,980.34
2017-01-30T07:16:58.062Z,980.33
2017-01-30T07:18:08.336Z,980.35
2017-01-30T07:19:18.620Z,980.38
2017-01-30T07:20:28.913Z,980.35
2017-01-30T07:21:39.589Z,980.37
2017-01-30T07:22:50.263Z,980.37
2017-01-30T07:24:00.940Z,980.44
2017-01-30T07:25:11.611Z,980.45
2017-01-30T07:26:21.887Z,980.51
2017-01-30T07:27:32.162Z,980.53
2017-01-30T07:28:42.831Z,980.55
2017-01-30T07:29:53.506Z,980.57
2017-01-30T07:31:04.178Z,980.63
2017-01-30T07:32:14.891Z,980.65
2017-01-30T07:33:25.575Z,980.69
2017-01-30T07:34:36.251Z,980.74
2017-01-30T07:35:46.930Z,980.77
2017-01-30T07:36:57.609Z,980.85
2017-01-30T07:38:08.290Z,980.86
2017-01-30T07:39:18.968Z,980.97
2017-01-30T07:40:29.638Z,980.96
2017-01-30T07:41:40.310Z,980.95
2017-01-30T07:42:50.983Z,980.96
2017-01-30T07:44:01.262Z,980.94
2017-01-30T07:45:11.932Z,980.96
2017-01-30T07:46:22.603Z,980.97
2017-01-30T07:47:33.311Z,980.97
2017-01-30T07:48:43.983Z,980.95
2017-01-30T07:49:54.261Z,980.95
2017-01-30T07:51:04.533Z,980.97
2017-01-30T07:52:14.821Z,981.03
2017-01-30T07:53:25.486Z,981.01
2017-01-30T07:54:36.158Z,980.99
2017-01-30T07:55:46.825Z,981.05
2017-01-30T07:56:57.103Z,981.06
2017-01-30T07:58:07.775Z,981.04
2017-01-30T07:59:18.443Z,980.99
2017-01-30T08:00:29.115Z,981.02
2017-01-30T08:01:39.792Z,981.03
2017-01-30T08:02:50.461Z,981.04
2017-01-30T08:04:01.156Z,981.05
2017-01-30T08:05:11.831Z,981.07
2017-01-30T08:06:22.504Z,981.1
2017-01-30T08:07:33.176Z,981.11
2017-01-30T08:08:43.845Z,981.13
2017-01-30T08:09:54.152Z,981.15
2017-01-30T08:11:04.826Z,981.17
2017-01-30T08:12:15.104Z,981.14
2017-01-30T08:13:25.775Z,981.2
2017-01-30T08:14:36.055Z,981.22
2017-01-30T08:15:46.729Z,981.25
2017-01-30T08:16:57.408Z,981.26
2017-01-30T08:18:08.083Z,981.27
2017-01-30T08:19:18.783Z,981.32
2017-01-30T08:20:29.472Z,981.31
2017-01-30T08:21:40.149Z,981.34
2017-01-30T08:22:50.815Z,981.35
2017-01-30T08:24:01.490Z,981.34
2017-01-30T08:25:12.159Z,981.37
2017-01-30T08:26:22.434Z,981.43
2017-01-30T08:27:33.108Z,981.42
2017-01-30T08:28:43.806Z,981.42
2017-01-30T08:29:54.082Z,981.47
2017-01-30T08:31:04.762Z,981.49
2017-01-30T08:32:15.434Z,981.52
2017-01-30T08:33:26.103Z,981.51
2017-01-30T08:34:36.785Z,981.57
2017-01-30T08:35:47.458Z,981.63
2017-01-30T08:36:58.127Z,981.65
2017-01-30T08:38:07.999Z,981.72
2017-01-30T08:39:18.666Z,981.74
2017-01-30T08:40:29.336Z,981.78
2017-01-30T08:41:40.010Z,981.81
2017-01-30T08:42:50.679Z,981.83
2017-01-30T08:44:01.350Z,981.88
2017-01-30T08:45:11.625Z,981.9
2017-01-30T08:46:22.313Z,981.91
2017-01-30T08:47:32.983Z,981.94
2017-01-30T08:48:43.278Z,982
2017-01-30T08:49:53.958Z,982.01
2017-01-30T08:51:04.641Z,982
2017-01-30T08:52:15.314Z,982.02
2017-01-30T08:53:25.610Z,982.07
2017-01-30T08:54:36.282Z,982.05
2017-01-30T08:55:46.951Z,982.09
2017-01-30T08:56:57.620Z,982.11
2017-01-30T08:58:08.292Z,982.1
2017-01-30T08:59:18.960Z,982.14
2017-01-30T09:00:29.633Z,982.16
2017-01-30T09:01:40.311Z,982.15
2017-01-30T09:02:50.986Z,982.15
2017-01-30T09:04:01.654Z,982.19
2017-01-30T09:05:11.931Z,982.15
2017-01-30T09:06:22.601Z,982.17
2017-01-30T09:07:33.267Z,982.19
2017-01-30T09:08:43.937Z,982.17
2017-01-30T09:09:54.226Z,982.21
2017-01-30T09:11:04.897Z,982.26
2017-01-30T09:12:14.779Z,982.17
2017-01-30T09:13:25.597Z,982.19
2017-01-30T09:14:36.269Z,982.19
2017-01-30T09:15:46.937Z,982.17
2017-01-30T09:16:57.608Z,982.24
2017-01-30T09:18:08.291Z,982.25
2017-01-30T09:19:18.562Z,982.29
2017-01-30T09:20:29.234Z,982.32
2017-01-30T09:21:39.910Z,982.29
2017-01-30T09:22:50.573Z,982.33
2017-01-30T09:24:01.238Z,982.34
2017-01-30T09:25:11.909Z,982.41
2017-01-30T09:26:22.575Z,982.43
2017-01-30T09:27:33.245Z,982.41
2017-01-30T09:28:43.923Z,982.41
2017-01-30T09:29:54.623Z,982.43
2017-01-30T09:31:05.291Z,982.44
2017-01-30T09:32:15.200Z,982.44
2017-01-30T09:33:25.898Z,982.45
2017-01-30T09:34:36.567Z,982.5
2017-01-30T09:35:47.250Z,982.51
2017-01-30T09:36:57.921Z,982.48
2017-01-30T09:38:08.203Z,982.49
2017-01-30T09:39:18.479Z,982.47
2017-01-30T09:40:29.190Z,982.49
2017-01-30T09:41:39.874Z,982.49
2017-01-30T09:42:50.552Z,982.5
2017-01-30T09:44:01.224Z,982.53
2017-01-30T09:45:11.902Z,982.51
2017-01-30T09:46:22.604Z,982.52
2017-01-30T09:47:33.282Z,982.56
2017-01-30T09:48:43.956Z,982.59
2017-01-30T09:49:54.231Z,982.6
2017-01-30T09:51:04.905Z,982.61
2017-01-30T09:52:15.582Z,982.64
2017-01-30T09:53:25.853Z,982.62
2017-01-30T09:54:36.519Z,982.68
2017-01-30T09:55:47.199Z,982.67
2017-01-30T09:56:57.877Z,982.73
2017-01-30T09:58:08.551Z,982.74
2017-01-30T09:59:18.821Z,982.79
2017-01-30T10:00:29.496Z,982.86
2017-01-30T10:01:40.198Z,982.88
2017-01-30T10:02:50.864Z,982.86
2017-01-30T10:04:01.533Z,982.88
2017-01-30T10:05:12.206Z,982.94
2017-01-30T10:06:22.479Z,982.95
2017-01-30T10:07:33.151Z,982.97
2017-01-30T10:08:43.823Z,982.98
2017-01-30T10:09:54.507Z,983.03
2017-01-30T10:11:05.179Z,983.03
2017-01-30T10:12:15.854Z,983.06
2017-01-30T10:13:26.527Z,983.08
2017-01-30T10:14:36.851Z,983.11
2017-01-30T10:15:47.532Z,983.14
2017-01-30T10:16:57.424Z,983.16
2017-01-30T10:18:08.094Z,983.22
2017-01-30T10:19:18.379Z,983.26
2017-01-30T10:20:29.083Z,983.24
2017-01-30T10:21:39.750Z,983.22
2017-01-30T10:22:50.425Z,983.18
2017-01-30T10:24:01.106Z,983.2
2017-01-30T10:25:11.778Z,983.19
2017-01-30T10:26:22.447Z,983.22
2017-01-30T10:27:33.123Z,983.3
2017-01-30T10:28:43.797Z,983.3
2017-01-30T10:29:54.466Z,983.33
2017-01-30T10:31:05.139Z,983.31
2017-01-30T10:32:15.808Z,983.3
2017-01-30T10:33:26.483Z,983.29
2017-01-30T10:34:36.763Z,983.31
2017-01-30T10:35:47.439Z,983.33
2017-01-30T10:36:57.710Z,983.35
2017-01-30T10:38:08.382Z,983.37
2017-01-30T10:39:19.053Z,983.43
2017-01-30T10:40:29.724Z,983.47
2017-01-30T10:41:40.403Z,983.5
2017-01-30T10:42:51.076Z,983.54
2017-01-30T10:44:01.742Z,983.58
2017-01-30T10:45:12.412Z,983.63
2017-01-30T10:46:23.094Z,983.6
2017-01-30T10:47:33.778Z,983.66
2017-01-30T10:48:44.050Z,983.66
2017-01-30T10:49:54.717Z,983.62
2017-01-30T10:51:04.998Z,983.62
2017-01-30T10:52:15.666Z,983.64
2017-01-30T10:53:26.333Z,983.58
2017-01-30T10:54:36.607Z,983.61
2017-01-30T10:55:47.278Z,983.61
2017-01-30T10:56:57.947Z,983.63
2017-01-30T10:58:07.831Z,983.64
2017-01-30T10:59:18.512Z,983.67
2017-01-30T11:00:28.792Z,983.71
2017-01-30T11:01:39.469Z,983.68
2017-01-30T11:02:49.770Z,983.71
2017-01-30T11:04:00.443Z,983.69
2017-01-30T11:05:11.118Z,983.66
2017-01-30T11:06:21.786Z,983.72
2017-01-30T11:07:32.463Z,983.72
2017-01-30T11:08:43.137Z,983.74
2017-01-30T11:09:53.806Z,983.77
2017-01-30T11:11:04.480Z,983.78
2017-01-30T11:12:15.167Z,983.75
2017-01-30T11:13:25.844Z,983.81
2017-01-30T11:14:36.549Z,983.89
2017-01-30T11:15:47.224Z,983.91
2017-01-30T11:16:57.897Z,983.96
2017-01-30T11:18:08.570Z,983.98
2017-01-30T11:19:19.243Z,984.02
2017-01-30T11:20:29.917Z,983.96
2017-01-30T11:21:40.593Z,984.02
2017-01-30T11:22:51.278Z,983.96
2017-01-30T11:24:01.976Z,984.03
2017-01-30T11:25:12.267Z,984.01
2017-01-30T11:26:22.548Z,984
2017-01-30T11:27:33.221Z,984.05
2017-01-30T11:28:43.900Z,984.07
2017-01-30T11:29:54.577Z,984.04
2017-01-30T11:31:05.261Z,984.07
2017-01-30T11:32:15.538Z,984.09
2017-01-30T11:33:26.215Z,984.11
2017-01-30T11:34:36.893Z,984.14
2017-01-30T11:35:47.579Z,984.17
2017-01-30T11:36:57.857Z,984.17
2017-01-30T11:38:08.538Z,984.2
2017-01-30T11:39:19.226Z,984.21
2017-01-30T11:40:29.909Z,984.23
2017-01-30T11:41:40.195Z,984.26
2017-01-30T11:42:50.896Z,984.27
2017-01-30T11:44:01.571Z,984.3
2017-01-30T11:45:12.241Z,984.36
2017-01-30T11:46:22.526Z,984.41
2017-01-30T11:47:33.206Z,984.45
2017-01-30T11:48:43.885Z,984.51
2017-01-30T11:49:54.562Z,984.62
2017-01-30T11:51:05.252Z,984.7
2017-01-30T11:52:15.933Z,984.8
2017-01-30T11:53:26.614Z,984.82
2017-01-30T11:54:37.295Z,984.82
2017-01-30T11:55:47.579Z,984.81
2017-01-30T11:56:57.862Z,984.61
2017-01-30T11:58:07.753Z,984.47
2017-01-30T11:59:18.454Z,984.42
2017-01-30T12:00:29.135Z,984.43
2017-01-30T12:01:39.812Z,984.42
2017-01-30T12:02:50.096Z,984.47
2017-01-30T12:04:00.379Z,984.45
2017-01-30T12:05:10.275Z,984.41
2017-01-30T12:06:20.969Z,984.47
2017-01-30T12:07:31.655Z,984.45
2017-01-30T12:08:41.937Z,984.46
2017-01-30T12:09:52.249Z,984.53
2017-01-30T12:11:02.537Z,984.52
2017-01-30T12:12:13.223Z,984.56
2017-01-30T12:13:23.908Z,984.57
2017-01-30T12:14:34.596Z,984.54
2017-01-30T12:15:45.228Z,984.57
2017-01-30T12:16:55.913Z,984.59
2017-01-30T12:18:06.596Z,984.61
2017-01-30T12:19:17.311Z,984.63
2017-01-30T12:20:27.987Z,984.63
2017-01-30T12:21:38.266Z,984.6
2017-01-30T12:22:48.943Z,984.64
2017-01-30T12:23:59.661Z,984.63
2017-01-30T12:25:10.342Z,984.7
2017-01-30T12:26:21.022Z,984.66
2017-01-30T12:27:31.699Z,984.66
2017-01-30T12:28:42.384Z,984.68
2017-01-30T12:29:52.674Z,984.69
2017-01-30T12:31:03.359Z,984.74
2017-01-30T12:32:13.648Z,984.77
2017-01-30T12:33:24.331Z,984.79
2017-01-30T12:34:35.019Z,984.78
2017-01-30T12:35:45.708Z,984.78
2017-01-30T12:36:56.393Z,984.81
2017-01-30T12:38:07.079Z,984.84
2017-01-30T12:39:17.766Z,984.9
2017-01-30T12:40:28.451Z,984.9
2017-01-30T12:41:39.141Z,984.97
2017-01-30T12:42:49.435Z,984.97
2017-01-30T12:44:00.122Z,985
2017-01-30T12:45:10.415Z,985.01
2017-01-30T12:46:21.099Z,985.04
2017-01-30T12:47:31.791Z,985.03
2017-01-30T12:48:42.483Z,985.06
2017-01-30T12:49:53.170Z,985.1
2017-01-30T12:51:03.463Z,985.11
2017-01-30T12:52:13.760Z,985.09
2017-01-30T12:53:24.459Z,985.11
2017-01-30T12:54:35.147Z,985.11
2017-01-30T12:55:45.830Z,985.12
2017-01-30T12:56:56.531Z,985.1
2017-01-30T12:58:07.215Z,985.07
2017-01-30T12:59:17.501Z,985.11
2017-01-30T13:00:28.186Z,985.05
2017-01-30T13:01:38.880Z,985.02
2017-01-30T13:02:49.577Z,985.06
2017-01-30T13:03:59.865Z,985.04
2017-01-30T13:05:10.548Z,985.02
2017-01-30T13:06:21.244Z,985.05
2017-01-30T13:07:31.571Z,985.07
2017-01-30T13:08:42.265Z,985.07
2017-01-30T13:09:52.558Z,985.14
2017-01-30T13:11:02.853Z,985.09
2017-01-30T13:12:13.144Z,985.08
2017-01-30T13:13:23.832Z,985.14
2017-01-30T13:14:34.524Z,985.11
2017-01-30T13:15:45.211Z,985.07
2017-01-30T13:16:55.898Z,985.15
2017-01-30T13:18:06.197Z,985.14
2017-01-30T13:19:16.886Z,985.16
2017-01-30T13:20:27.575Z,985.16
2017-01-30T13:21:38.259Z,985.19
2017-01-30T13:22:48.945Z,985.15
2017-01-30T13:23:59.655Z,985.18
2017-01-30T13:25:09.964Z,985.18
2017-01-30T13:26:20.654Z,985.19
2017-01-30T13:27:31.350Z,985.19
2017-01-30T13:28:42.035Z,985.22
2017-01-30T13:29:52.733Z,985.23
2017-01-30T13:31:02.622Z,985.18
2017-01-30T13:32:12.908Z,985.24
2017-01-30T13:33:23.220Z,985.21
2017-01-30T13:34:33.909Z,985.18
2017-01-30T13:35:44.598Z,985.12
2017-01-30T13:36:54.903Z,985.16
2017-01-30T13:38:05.594Z,985.15
2017-01-30T13:39:15.886Z,985.13
2017-01-30T13:40:26.574Z,985.13
2017-01-30T13:41:37.258Z,985.14
2017-01-30T13:42:47.547Z,985.15
2017-01-30T13:43:57.834Z,985.2
2017-01-30T13:45:08.126Z,985.22
2017-01-30T13:46:18.813Z,985.27
2017-01-30T13:47:29.506Z,985.26
2017-01-30T13:48:40.190Z,985.21
2017-01-30T13:49:50.971Z,985.29
2017-01-30T13:51:00.860Z,985.27
2017-01-30T13:52:11.550Z,985.29
2017-01-30T13:53:22.235Z,985.33
2017-01-30T13:54:32.927Z,985.33
2017-01-30T13:55:43.620Z,985.33
2017-01-30T13:56:54.304Z,985.35
2017-01-30T13:58:04.983Z,985.36
2017-01-30T13:59:15.677Z,985.35
2017-01-30T14:00:26.361Z,985.4
2017-01-30T14:01:37.049Z,985.42
2017-01-30T14:02:47.731Z,985.46
2017-01-30T14:03:58.022Z,985.45
2017-01-30T14:05:08.305Z,985.47
2017-01-30T14:06:18.587Z,985.39
2017-01-30T14:07:29.261Z,985.43
2017-01-30T14:08:39.945Z,985.4
2017-01-30T14:09:50.622Z,985.43
2017-01-30T14:11:01.304Z,985.44
2017-01-30T14:12:11.590Z,985.44
2017-01-30T14:13:22.264Z,985.45
2017-01-30T14:14:32.940Z,985.47
2017-01-30T14:15:43.226Z,985.43
2017-01-30T14:16:53.920Z,985.41
2017-01-30T14:18:04.205Z,985.41
2017-01-30T14:19:14.485Z,985.41
2017-01-30T14:20:25.164Z,985.47
2017-01-30T14:21:35.843Z,985.51
2017-01-30T14:22:46.529Z,985.47
2017-01-30T14:23:57.209Z,985.49
2017-01-30T14:25:07.489Z,985.51
2017-01-30T14:26:18.165Z,985.53
2017-01-30T14:27:28.848Z,985.54
2017-01-30T14:28:39.519Z,985.53
2017-01-30T14:29:49.399Z,985.53
2017-01-30T14:31:00.070Z,985.5
2017-01-30T14:32:10.376Z,985.51
2017-01-30T14:33:20.263Z,985.53
2017-01-30T14:34:30.942Z,985.55
2017-01-30T14:35:41.614Z,985.51
2017-01-30T14:36:52.292Z,985.52
2017-01-30T14:38:02.171Z,985.52
2017-01-30T14:39:12.060Z,985.56
2017-01-30T14:40:22.733Z,985.56
2017-01-30T14:41:33.402Z,985.59
2017-01-30T14:42:44.070Z,985.7
2017-01-30T14:43:54.749Z,985.73